Time,TemperatureF,DewpointF,PressureIn,WindDirection,WindDirectionDegrees,WindSpeedMPH,WindSpeedGustMPH,Humidity,HourlyPrecipIn,Conditions,Clouds,dailyrainin,SolarRadiationWatts/m^2,SoftwareType,DateUTC
2013-08-04 00:00:00,64.7,53.5,29.86,ESE,114,1.0,1.0,67,0.00,,,0.06,0,Wunderground v.1.15,2013-08-04 06:00:00,
2013-08-04 00:05:00,64.8,54.0,29.86,ESE,114,0.0,1.0,68,0.00,,,0.00,0,Wunderground v.1.15,2013-08-04 06:05:00,
2013-08-04 00:15:00,64.3,53.5,29.86,ESE,114,0.0,0.0,68,0.00,,,0.00,0,Wunderground v.1.15,2013-08-04 06:15:00,
2013-08-04 00:25:00,64.0,54.0,29.86,ESE,114,0.0,0.0,70,0.00,,,0.00,0,Wunderground v.1.15,2013-08-04 06:25:00,
2013-08-04 00:35:00,63.3,53.0,29.86,ESE,114,0.0,0.0,69,0.00,,,0.00,0,Wunderground v.1.15,2013-08-04 06:35:00,
2013-08-04 00:44:00,63.2,52.9,29.86,SW,214,0.0,0.0,69,0.00,,,0.00,0,Wunderground v.1.15,2013-08-04 06:44:00,
2013-08-04 00:55:00,62.7,52.0,29.86,ESE,118,0.0,0.0,68,0.00,,,0.00,0,Wunderground v.1.15,2013-08-04 06:55:00,
2013-08-04 01:00:00,63.1,53.2,29.86,ESE,118,0.0,0.0,70,0.00,,,0.00,0,Wunderground v.1.15,2013-08-04 07:00:00,
2013-08-04 01:10:00,62.7,52.8,29.86,ESE,118,0.0,1.0,70,0.00,,,0.00,0,Wunderground v.1.15,2013-08-04 07:10:00,
2013-08-04 01:20:00,62.4,52.1,29.86,ESE,119,0.0,1.0,69,0.00,,,0.00,0,Wunderground v.1.15,2013-08-04 07:20:00,
2013-08-04 01:30:00,62.0,52.5,29.87,ESE,119,0.0,1.0,71,0.00,,,0.00,0,Wunderground v.1.15,2013-08-04 07:30:00,
2013-08-04 01:40:00,61.8,51.5,29.87,ESE,119,0.0,1.0,69,0.00,,,0.00,0,Wunderground v.1.15,2013-08-04 07:40:00,
2013-08-04 01:50:00,61.5,51.6,29.87,ESE,119,0.0,1.0,70,0.00,,,0.00,0,Wunderground v.1.15,2013-08-04 07:50:00,
2013-08-04 01:55:00,61.3,51.4,29.87,ESE,120,0.0,1.0,70,0.00,,,0.00,0,Wunderground v.1.15,2013-08-04 07:55:00,
2013-08-04 02:10:00,60.9,50.7,29.87,ESE,119,0.0,1.0,69,0.00,,,0.00,0,Wunderground v.1.15,2013-08-04 08:10:00,
2013-08-04 02:15:00,60.8,50.2,29.88,ESE,120,0.0,1.0,68,0.00,,,0.00,0,Wunderground v.1.15,2013-08-04 08:15:00,
2013-08-04 02:25:00,60.5,50.3,29.87,ESE,120,0.0,1.0,69,0.00,,,0.00,0,Wunderground v.1.15,2013-08-04 08:25:00,
2013-08-04 02:35:00,60.3,51.2,29.87,ESE,119,0.0,1.0,72,0.00,,,0.00,0,Wunderground v.1.15,2013-08-04 08:35:00,
2013-08-04 02:40:00,60.1,51.0,29.87,ESE,119,0.0,1.0,72,0.00,,,0.00,0,Wunderground v.1.15,2013-08-04 08:40:00,
2013-08-04 02:45:00,60.0,51.3,29.88,ESE,120,0.0,1.0,73,0.00,,,0.00,0,Wunderground v.1.15,2013-08-04 08:45:00,
2013-08-04 02:54:00,59.6,50.9,29.88,ESE,119,0.0,1.0,73,0.00,,,0.00,0,Wunderground v.1.15,2013-08-04 08:54:00,
2013-08-04 03:00:00,59.3,51.0,29.88,ESE,119,0.0,1.0,74,0.00,,,0.00,0,Wunderground v.1.15,2013-08-04 09:00:00,
2013-08-04 03:05:00,59.3,51.4,29.88,ESE,120,0.0,1.0,75,0.00,,,0.00,0,Wunderground v.1.15,2013-08-04 09:05:00,
2013-08-04 03:15:00,58.9,51.3,29.88,ESE,119,0.0,0.0,76,0.00,,,0.00,0,Wunderground v.1.15,2013-08-04 09:15:00,
2013-08-04 03:25:00,58.8,51.2,29.88,ESE,120,0.0,0.0,76,0.00,,,0.00,0,Wunderground v.1.15,2013-08-04 09:25:00,
2013-08-04 03:35:00,58.4,50.9,29.88,ESE,120,0.0,0.0,76,0.00,,,0.00,0,Wunderground v.1.15,2013-08-04 09:35:00,
2013-08-04 03:45:00,58.1,50.6,29.88,ESE,120,0.0,0.0,76,0.00,,,0.00,0,Wunderground v.1.15,2013-08-04 09:45:00,
2013-08-04 03:50:00,58.0,50.5,29.88,ESE,120,0.0,0.0,76,0.00,,,0.00,0,Wunderground v.1.15,2013-08-04 09:50:00,
2013-08-04 03:55:00,58.1,49.9,29.88,ESE,120,0.0,0.0,74,0.00,,,0.00,0,Wunderground v.1.15,2013-08-04 09:55:00,
2013-08-04 04:04:00,58.2,49.6,29.88,ESE,120,0.0,0.0,73,0.00,,,0.00,0,Wunderground v.1.15,2013-08-04 10:04:00,
2013-08-04 04:10:00,58.0,49.4,29.88,ESE,120,0.0,0.0,73,0.00,,,0.00,0,Wunderground v.1.15,2013-08-04 10:10:00,
2013-08-04 04:20:00,57.6,49.4,29.88,ESE,120,0.0,0.0,74,0.00,,,0.00,0,Wunderground v.1.15,2013-08-04 10:20:00,
2013-08-04 04:30:00,57.5,50.0,29.89,ESE,120,0.0,0.0,76,0.00,,,0.00,0,Wunderground v.1.15,2013-08-04 10:30:00,
2013-08-04 04:40:00,57.3,50.1,29.89,ESE,120,0.0,0.0,77,0.00,,,0.00,0,Wunderground v.1.15,2013-08-04 10:40:00,
2013-08-04 04:49:00,57.0,49.9,29.89,ESE,120,0.0,0.0,77,0.00,,,0.00,0,Wunderground v.1.15,2013-08-04 10:49:00,
2013-08-04 04:59:00,56.9,49.8,29.90,ESE,120,0.0,0.0,77,0.00,,,0.00,0,Wunderground v.1.15,2013-08-04 10:59:00,
2013-08-04 05:05:00,56.9,49.8,29.90,ESE,120,0.0,0.0,77,0.00,,,0.00,0,Wunderground v.1.15,2013-08-04 11:05:00,
2013-08-04 05:10:00,56.7,49.6,29.90,ESE,120,0.0,0.0,77,0.00,,,0.00,0,Wunderground v.1.15,2013-08-04 11:10:00,
2013-08-04 05:20:00,56.5,49.0,29.89,ESE,120,0.0,0.0,76,0.00,,,0.00,0,Wunderground v.1.15,2013-08-04 11:20:00,
2013-08-04 05:30:00,56.3,49.2,29.90,ESE,120,0.0,0.0,77,0.00,,,0.00,0,Wunderground v.1.15,2013-08-04 11:30:00,
2013-08-04 05:40:00,56.0,48.9,29.91,ESE,120,0.0,0.0,77,0.00,,,0.00,0,Wunderground v.1.15,2013-08-04 11:40:00,
2013-08-04 05:50:00,55.8,49.0,29.91,ESE,120,0.0,0.0,78,0.00,,,0.00,0,Wunderground v.1.15,2013-08-04 11:50:00,
2013-08-04 06:00:00,55.7,48.9,29.92,ESE,120,0.0,0.0,78,0.00,,,0.00,0,Wunderground v.1.15,2013-08-04 12:00:00,
2013-08-04 06:05:00,55.9,49.5,29.92,ESE,120,0.0,0.0,79,0.00,,,0.00,0,Wunderground v.1.15,2013-08-04 12:05:00,
2013-08-04 06:15:00,55.6,49.2,29.92,ESE,120,0.0,0.0,79,0.00,,,0.00,5,Wunderground v.1.15,2013-08-04 12:15:00,
2013-08-04 06:20:00,55.8,49.7,29.92,ESE,120,0.0,0.0,80,0.00,,,0.00,7,Wunderground v.1.15,2013-08-04 12:20:00,
2013-08-04 06:25:00,55.6,49.2,29.92,NW,314,0.0,1.0,79,0.00,,,0.00,9,Wunderground v.1.15,2013-08-04 12:25:00,
2013-08-04 06:30:00,55.7,49.6,29.93,ENE,57,0.0,0.0,80,0.00,,,0.00,11,Wunderground v.1.15,2013-08-04 12:30:00,
2013-08-04 06:40:00,56.5,49.7,29.93,SSE,147,0.0,0.0,78,0.00,,,0.00,14,Wunderground v.1.15,2013-08-04 12:40:00,
2013-08-04 06:45:00,56.6,50.2,29.93,SSE,147,0.0,0.0,79,0.00,,,0.00,16,Wunderground v.1.15,2013-08-04 12:45:00,
2013-08-04 06:50:00,56.6,49.8,29.93,SSE,148,0.0,0.0,78,0.00,,,0.00,18,Wunderground v.1.15,2013-08-04 12:50:00,
2013-08-04 07:00:00,56.2,49.4,29.93,SSE,148,0.0,0.0,78,0.00,,,0.00,19,Wunderground v.1.15,2013-08-04 13:00:00,
2013-08-04 07:05:00,56.0,49.2,29.93,SSE,149,0.0,0.0,78,0.00,,,0.00,21,Wunderground v.1.15,2013-08-04 13:05:00,
2013-08-04 07:10:00,56.0,48.9,29.93,SSW,203,0.0,0.0,77,0.00,,,0.00,23,Wunderground v.1.15,2013-08-04 13:10:00,
2013-08-04 07:20:00,55.8,48.7,29.94,SSW,203,0.0,0.0,77,0.00,,,0.00,25,Wunderground v.1.15,2013-08-04 13:20:00,
2013-08-04 07:25:00,55.8,48.7,29.94,SSW,203,0.0,0.0,77,0.00,,,0.00,26,Wunderground v.1.15,2013-08-04 13:25:00,
2013-08-04 07:35:00,55.5,48.4,29.95,SSW,203,0.0,0.0,77,0.00,,,0.00,28,Wunderground v.1.15,2013-08-04 13:35:00,
2013-08-04 07:44:00,56.1,49.7,29.95,SSW,203,0.0,0.0,79,0.00,,,0.00,213,Wunderground v.1.15,2013-08-04 13:44:00,
2013-08-04 07:50:00,57.2,50.1,29.95,SSE,153,0.0,0.0,77,0.00,,,0.00,229,Wunderground v.1.15,2013-08-04 13:50:00,
2013-08-04 08:00:00,58.5,51.0,29.95,SSE,153,0.0,0.0,76,0.00,,,0.00,260,Wunderground v.1.15,2013-08-04 14:00:00,
2013-08-04 08:10:00,59.8,51.1,29.95,SSE,153,0.0,0.0,73,0.00,,,0.00,190,Wunderground v.1.15,2013-08-04 14:10:00,
2013-08-04 08:15:00,59.9,50.8,29.95,SSE,153,0.0,0.0,72,0.00,,,0.00,294,Wunderground v.1.15,2013-08-04 14:15:00,
2013-08-04 08:25:00,61.4,51.9,29.95,SSE,153,0.0,0.0,71,0.00,,,0.00,338,Wunderground v.1.15,2013-08-04 14:25:00,
2013-08-04 08:34:00,62.5,51.4,29.94,SSE,152,0.0,0.0,67,0.00,,,0.00,364,Wunderground v.1.15,2013-08-04 14:34:00,
2013-08-04 08:40:00,62.9,52.2,29.94,ENE,72,0.0,0.0,68,0.00,,,0.00,376,Wunderground v.1.15,2013-08-04 14:40:00,
2013-08-04 08:50:00,63.9,51.5,29.94,SSE,149,0.0,0.0,64,0.00,,,0.00,406,Wunderground v.1.15,2013-08-04 14:50:00,
2013-08-04 08:59:00,65.0,49.9,29.94,ENE,60,0.0,0.0,58,0.00,,,0.00,438,Wunderground v.1.15,2013-08-04 14:59:00,
2013-08-04 09:05:00,65.5,50.8,29.93,ENE,60,0.0,1.0,59,0.00,,,0.00,454,Wunderground v.1.15,2013-08-04 15:05:00,
2013-08-04 09:15:00,67.0,51.3,29.93,East,87,0.0,0.0,57,0.00,,,0.00,489,Wunderground v.1.15,2013-08-04 15:15:00,
2013-08-04 09:25:00,68.1,52.3,29.93,East,86,0.0,0.0,57,0.00,,,0.00,520,Wunderground v.1.15,2013-08-04 15:25:00,
2013-08-04 09:30:00,68.7,50.9,29.93,East,91,0.0,1.0,53,0.00,,,0.00,540,Wunderground v.1.15,2013-08-04 15:30:00,
2013-08-04 09:40:00,69.2,50.3,29.92,SE,141,0.0,0.0,51,0.00,,,0.00,454,Wunderground v.1.15,2013-08-04 15:40:00,
2013-08-04 09:45:00,69.4,49.4,29.92,SE,133,1.0,1.0,49,0.00,,,0.00,329,Wunderground v.1.15,2013-08-04 15:45:00,
2013-08-04 09:55:00,69.8,50.3,29.91,ESE,108,0.0,1.0,50,0.00,,,0.00,269,Wunderground v.1.15,2013-08-04 15:55:00,
2013-08-04 10:00:00,70.1,50.0,29.91,ENE,69,0.0,0.0,49,0.00,,,0.00,635,Wunderground v.1.15,2013-08-04 16:00:00,
2013-08-04 10:10:00,71.5,50.2,29.90,NNE,21,0.0,4.0,47,0.00,,,0.00,636,Wunderground v.1.15,2013-08-04 16:10:00,
2013-08-04 10:20:00,72.9,50.9,29.90,NNE,25,0.0,4.0,46,0.00,,,0.00,687,Wunderground v.1.15,2013-08-04 16:20:00,
2013-08-04 10:25:00,73.3,50.7,29.89,NNE,29,0.0,4.0,45,0.00,,,0.00,735,Wunderground v.1.15,2013-08-04 16:25:00,
2013-08-04 10:35:00,74.1,51.4,29.89,NNE,31,0.0,4.0,45,0.00,,,0.00,719,Wunderground v.1.15,2013-08-04 16:35:00,
2013-08-04 10:40:00,75.0,51.0,29.89,NNE,31,0.0,4.0,43,0.00,,,0.00,733,Wunderground v.1.15,2013-08-04 16:40:00,
2013-08-04 10:45:00,75.9,50.5,29.88,South,181,0.0,4.0,41,0.00,,,0.00,737,Wunderground v.1.15,2013-08-04 16:45:00,
2013-08-04 10:55:00,76.1,50.0,29.88,SSE,163,1.0,4.0,40,0.00,,,0.00,768,Wunderground v.1.15,2013-08-04 16:55:00,
2013-08-04 11:05:00,76.9,49.4,29.87,SSE,164,1.0,4.0,38,0.00,,,0.00,784,Wunderground v.1.15,2013-08-04 17:05:00,
2013-08-04 11:09:00,77.5,49.2,29.87,SSE,163,0.0,4.0,37,0.00,,,0.00,793,Wunderground v.1.15,2013-08-04 17:09:00,
2013-08-04 11:20:00,78.6,50.1,29.86,SSE,152,1.0,4.0,37,0.00,,,0.00,849,Wunderground v.1.15,2013-08-04 17:20:00,
2013-08-04 11:24:00,79.1,49.8,29.86,SSE,148,1.0,4.0,36,0.00,,,0.00,907,Wunderground v.1.15,2013-08-04 17:24:00,
2013-08-04 11:35:00,80.0,49.1,29.85,SSW,211,1.0,4.0,34,0.00,,,0.00,900,Wunderground v.1.15,2013-08-04 17:35:00,
2013-08-04 11:44:00,80.9,49.1,29.84,SE,143,1.0,4.0,33,0.00,,,0.00,902,Wunderground v.1.15,2013-08-04 17:44:00,
2013-08-04 11:55:00,82.2,48.6,29.84,SW,218,1.0,2.0,31,0.00,,,0.00,907,Wunderground v.1.15,2013-08-04 17:55:00,
2013-08-04 12:05:00,82.0,48.4,29.83,SSW,212,3.0,4.0,31,0.00,,,0.00,763,Wunderground v.1.15,2013-08-04 18:05:00,
2013-08-04 12:15:00,82.1,48.5,29.83,South,169,2.0,2.0,31,0.00,,,0.00,875,Wunderground v.1.15,2013-08-04 18:15:00,
2013-08-04 12:25:00,83.4,47.8,29.82,SE,137,2.0,3.0,29,0.00,,,0.00,974,Wunderground v.1.15,2013-08-04 18:25:00,
2013-08-04 12:35:00,83.1,48.5,29.82,SW,235,2.0,6.0,30,0.00,,,0.00,413,Wunderground v.1.15,2013-08-04 18:35:00,
2013-08-04 12:45:00,83.9,47.3,29.82,East,95,1.0,2.0,28,0.00,,,0.00,408,Wunderground v.1.15,2013-08-04 18:45:00,
2013-08-04 12:50:00,84.6,49.7,29.82,SSW,195,1.0,3.0,30,0.00,,,0.00,1164,Wunderground v.1.15,2013-08-04 18:50:00,
2013-08-04 13:00:00,84.2,47.6,29.81,SE,140,3.0,3.0,28,0.00,,,0.00,262,Wunderground v.1.15,2013-08-04 19:00:00,
2013-08-04 13:10:00,83.4,49.6,29.83,WSW,254,5.0,6.0,31,0.00,,,0.00,186,Wunderground v.1.15,2013-08-04 19:10:00,
2013-08-04 13:20:00,81.2,49.4,29.83,ENE,69,5.0,5.0,33,0.00,,,0.00,158,Wunderground v.1.15,2013-08-04 19:20:00,
2013-08-04 13:30:00,81.0,49.2,29.83,SW,215,4.0,4.0,33,0.00,,,0.00,253,Wunderground v.1.15,2013-08-04 19:30:00,
2013-08-04 13:39:00,80.3,48.6,29.82,SE,133,5.0,7.0,33,0.00,,,0.00,279,Wunderground v.1.15,2013-08-04 19:39:00,
2013-08-04 13:45:00,79.6,48.8,29.82,East,100,6.0,8.0,34,0.00,,,0.00,246,Wunderground v.1.15,2013-08-04 19:45:00,
2013-08-04 13:55:00,80.3,47.7,29.82,East,95,5.0,7.0,32,0.00,,,0.00,520,Wunderground v.1.15,2013-08-04 19:55:00,
2013-08-04 14:00:00,81.1,48.4,29.82,East,96,2.0,7.0,32,0.00,,,0.00,445,Wunderground v.1.15,2013-08-04 20:00:00,
2013-08-04 14:09:00,82.6,50.6,29.81,WSW,246,2.0,2.0,33,0.00,,,0.00,520,Wunderground v.1.15,2013-08-04 20:09:00,
2013-08-04 14:15:00,82.9,50.0,29.80,SW,231,1.0,5.0,32,0.00,,,0.00,1118,Wunderground v.1.15,2013-08-04 20:15:00,
2013-08-04 14:25:00,83.6,48.0,29.80,WSW,239,1.0,3.0,29,0.00,,,0.00,1007,Wunderground v.1.15,2013-08-04 20:25:00,
2013-08-04 14:34:00,84.9,48.2,29.80,SSW,212,3.0,6.0,28,0.00,,,0.00,940,Wunderground v.1.15,2013-08-04 20:34:00,
2013-08-04 14:40:00,84.8,46.1,29.79,SW,216,2.0,2.0,26,0.00,,,0.00,174,Wunderground v.1.15,2013-08-04 20:40:00,
2013-08-04 14:50:00,85.3,45.5,29.79,SW,227,2.0,2.0,25,0.00,,,0.00,202,Wunderground v.1.15,2013-08-04 20:50:00,
2013-08-04 14:55:00,85.6,44.7,29.78,SW,227,1.0,6.0,24,0.00,,,0.00,976,Wunderground v.1.15,2013-08-04 20:55:00,
2013-08-04 15:05:00,85.8,45.9,29.78,SW,225,1.0,6.0,25,0.00,,,0.00,188,Wunderground v.1.15,2013-08-04 21:05:00,
2013-08-04 15:15:00,84.7,45.0,29.78,SW,221,3.0,4.0,25,0.00,,,0.00,156,Wunderground v.1.15,2013-08-04 21:15:00,
2013-08-04 15:25:00,81.7,51.4,29.79,WSW,247,1.0,3.0,35,0.00,,,0.00,311,Wunderground v.1.15,2013-08-04 21:25:00,
2013-08-04 15:35:00,79.4,50.1,29.79,North,10,3.0,4.0,36,0.00,,,0.01,255,Wunderground v.1.15,2013-08-04 21:35:00,
2013-08-04 15:45:00,80.6,47.2,29.78,ENE,62,3.0,4.0,31,0.00,,,0.01,237,Wunderground v.1.15,2013-08-04 21:45:00,
2013-08-04 15:55:00,81.3,46.0,29.79,SSW,204,2.0,4.0,29,0.00,,,0.01,197,Wunderground v.1.15,2013-08-04 21:55:00,
2013-08-04 16:00:00,81.6,44.4,29.79,SW,218,4.0,8.0,27,0.00,,,0.01,163,Wunderground v.1.15,2013-08-04 22:00:00,
2013-08-04 16:10:00,80.9,44.7,29.81,SSW,212,7.0,7.0,28,0.00,,,0.01,109,Wunderground v.1.15,2013-08-04 22:10:00,
2013-08-04 16:20:00,79.7,47.2,29.83,SW,214,11.0,16.0,32,0.00,,,0.01,76,Wunderground v.1.15,2013-08-04 22:20:00,
2013-08-04 16:30:00,77.5,49.2,29.84,SSW,199,8.0,8.0,37,0.00,,,0.01,56,Wunderground v.1.15,2013-08-04 22:30:00,
2013-08-04 16:40:00,75.7,51.0,29.85,North,9,4.0,4.0,42,0.00,,,0.01,39,Wunderground v.1.15,2013-08-04 22:40:00,
2013-08-04 16:50:00,74.1,50.8,29.86,NNE,27,3.0,5.0,44,0.00,,,0.01,33,Wunderground v.1.15,2013-08-04 22:50:00,
2013-08-04 17:00:00,73.7,50.4,29.87,West,274,4.0,5.0,44,0.00,,,0.01,33,Wunderground v.1.15,2013-08-04 23:00:00,
2013-08-04 17:15:00,70.8,54.3,29.88,North,4,0.0,5.0,56,0.00,,,0.02,40,Wunderground v.1.15,2013-08-04 23:15:00,
2013-08-04 17:25:00,69.2,55.6,29.88,SW,235,1.0,5.0,62,0.00,,,0.02,32,Wunderground v.1.15,2013-08-04 23:25:00,
2013-08-04 17:30:00,68.9,56.2,29.88,SW,236,0.0,5.0,64,0.00,,,0.02,37,Wunderground v.1.15,2013-08-04 23:30:00,
2013-08-04 17:40:00,68.7,54.7,29.88,North,8,0.0,5.0,61,0.00,,,0.02,56,Wunderground v.1.15,2013-08-04 23:40:00,
2013-08-04 17:45:00,69.2,54.3,29.88,NE,44,1.0,5.0,59,0.00,,,0.02,65,Wunderground v.1.15,2013-08-04 23:45:00,
2013-08-04 17:55:00,70.1,54.2,29.89,East,99,3.0,5.0,57,0.00,,,0.02,63,Wunderground v.1.15,2013-08-04 23:55:00,
2013-08-04 18:05:00,70.4,54.4,29.90,NE,38,1.0,3.0,57,0.00,,,0.02,79,Wunderground v.1.15,2013-08-05 00:05:00,
2013-08-04 18:15:00,71.3,51.7,29.91,NE,38,4.0,4.0,50,0.00,,,0.02,86,Wunderground v.1.15,2013-08-05 00:15:00,
2013-08-04 18:20:00,71.1,52.0,29.91,East,79,4.0,4.0,51,0.00,,,0.02,105,Wunderground v.1.15,2013-08-05 00:20:00,
2013-08-04 18:30:00,70.6,52.1,29.91,East,95,4.0,14.0,52,0.00,,,0.02,134,Wunderground v.1.15,2013-08-05 00:30:00,
2013-08-04 18:35:00,70.4,51.9,29.92,East,100,4.0,14.0,52,0.00,,,0.02,132,Wunderground v.1.15,2013-08-05 00:35:00,
2013-08-04 18:45:00,70.1,51.7,29.92,East,88,7.0,9.0,52,0.00,,,0.02,100,Wunderground v.1.15,2013-08-05 00:45:00,
2013-08-04 18:55:00,70.2,52.3,29.92,East,87,3.0,6.0,53,0.00,,,0.02,91,Wunderground v.1.15,2013-08-05 00:55:00,
2013-08-04 19:05:00,70.0,53.1,29.92,SW,231,2.0,3.0,55,0.00,,,0.02,86,Wunderground v.1.15,2013-08-05 01:05:00,
2013-08-04 19:14:00,69.0,53.6,29.92,WSW,251,1.0,5.0,58,0.00,,,0.02,88,Wunderground v.1.15,2013-08-05 01:14:00,
2013-08-04 19:20:00,68.6,54.2,29.92,SSW,203,1.0,3.0,60,0.00,,,0.02,69,Wunderground v.1.15,2013-08-05 01:20:00,
2013-08-04 19:30:00,68.5,54.1,29.91,SSE,164,2.0,2.0,60,0.00,,,0.02,40,Wunderground v.1.15,2013-08-05 01:30:00,
2013-08-04 19:35:00,68.4,54.4,29.91,SSE,158,2.0,5.0,61,0.00,,,0.02,35,Wunderground v.1.15,2013-08-05 01:35:00,
2013-08-04 19:45:00,68.4,54.4,29.91,South,179,2.0,3.0,61,0.00,,,0.02,32,Wunderground v.1.15,2013-08-05 01:45:00,
2013-08-04 19:55:00,68.1,54.1,29.91,South,191,1.0,3.0,61,0.00,,,0.02,21,Wunderground v.1.15,2013-08-05 01:55:00,
2013-08-04 20:05:00,67.8,54.3,29.91,SSW,204,0.0,3.0,62,0.00,,,0.02,14,Wunderground v.1.15,2013-08-05 02:05:00,
2013-08-04 20:15:00,67.7,53.8,29.91,SSW,202,0.0,3.0,61,0.00,,,0.02,7,Wunderground v.1.15,2013-08-05 02:15:00,
2013-08-04 20:25:00,67.7,54.2,29.91,SE,145,1.0,3.0,62,0.00,,,0.02,0,Wunderground v.1.15,2013-08-05 02:25:00,
2013-08-04 20:35:00,67.5,54.0,29.91,NE,53,1.0,3.0,62,0.00,,,0.02,0,Wunderground v.1.15,2013-08-05 02:35:00,
2013-08-04 20:45:00,68.0,52.7,29.91,NNE,23,6.0,9.0,58,0.00,,,0.02,0,Wunderground v.1.15,2013-08-05 02:45:00,
2013-08-04 20:49:00,68.1,52.8,29.91,East,87,8.0,8.0,58,0.00,,,0.02,0,Wunderground v.1.15,2013-08-05 02:49:00,
2013-08-04 21:00:00,68.4,52.1,29.91,NNW,348,9.0,9.0,56,0.00,,,0.02,0,Wunderground v.1.15,2013-08-05 03:00:00,
2013-08-04 21:05:00,68.3,52.5,29.91,ENE,62,7.0,9.0,57,0.00,,,0.02,0,Wunderground v.1.15,2013-08-05 03:05:00,
2013-08-04 21:15:00,68.2,52.4,29.91,NNE,18,3.0,6.0,57,0.00,,,0.02,0,Wunderground v.1.15,2013-08-05 03:15:00,
2013-08-04 21:25:00,68.2,52.4,29.91,SE,127,2.0,3.0,57,0.00,,,0.02,0,Wunderground v.1.15,2013-08-05 03:25:00,
2013-08-04 21:35:00,67.5,52.7,29.91,ENE,58,2.0,5.0,59,0.00,,,0.02,0,Wunderground v.1.15,2013-08-05 03:35:00,
2013-08-04 21:45:00,67.6,53.7,29.92,South,172,0.0,1.0,61,0.00,,,0.02,0,Wunderground v.1.15,2013-08-05 03:45:00,
2013-08-04 21:49:00,67.2,53.7,29.91,SSW,196,0.0,0.0,62,0.00,,,0.02,0,Wunderground v.1.15,2013-08-05 03:49:00,
2013-08-04 21:55:00,66.9,53.9,29.91,SSW,196,0.0,0.0,63,0.00,,,0.02,0,Wunderground v.1.15,2013-08-05 03:55:00,
2013-08-04 22:05:00,66.2,53.7,29.92,SSE,160,0.0,13.0,64,0.00,,,0.02,0,Wunderground v.1.15,2013-08-05 04:05:00,
2013-08-04 22:20:00,65.7,53.2,29.92,South,177,0.0,13.0,64,0.00,,,0.02,0,Wunderground v.1.15,2013-08-05 04:20:00,
2013-08-04 22:25:00,65.6,53.5,29.92,WSW,246,0.0,13.0,65,0.00,,,0.02,0,Wunderground v.1.15,2013-08-05 04:25:00,
2013-08-04 22:34:00,65.9,53.8,29.92,SSW,211,1.0,13.0,65,0.00,,,0.02,0,Wunderground v.1.15,2013-08-05 04:34:00,
2013-08-04 22:40:00,65.8,53.7,29.92,SSW,211,0.0,13.0,65,0.00,,,0.02,0,Wunderground v.1.15,2013-08-05 04:40:00,
2013-08-04 22:50:00,65.4,53.3,29.92,SSW,205,0.0,13.0,65,0.00,,,0.02,0,Wunderground v.1.15,2013-08-05 04:50:00,
2013-08-04 22:55:00,65.2,53.1,29.92,SW,222,1.0,13.0,65,0.00,,,0.02,0,Wunderground v.1.15,2013-08-05 04:55:00,
2013-08-04 23:05:00,65.1,53.5,29.92,SSW,208,1.0,13.0,66,0.00,,,0.02,0,Wunderground v.1.15,2013-08-05 05:05:00,
2013-08-04 23:10:00,64.9,53.3,29.92,SSW,208,1.0,1.0,66,0.00,,,0.02,0,Wunderground v.1.15,2013-08-05 05:10:00,
2013-08-04 23:20:00,64.4,52.8,29.92,SW,220,0.0,13.0,66,0.00,,,0.02,0,Wunderground v.1.15,2013-08-05 05:20:00,
2013-08-04 23:30:00,63.8,52.6,29.92,South,170,1.0,1.0,67,0.00,,,0.02,0,Wunderground v.1.15,2013-08-05 05:30:00,
2013-08-04 23:40:00,63.4,52.7,29.92,SSW,207,0.0,13.0,68,0.00,,,0.02,0,Wunderground v.1.15,2013-08-05 05:40:00,
2013-08-04 23:45:00,63.2,52.9,29.91,SSW,207,0.0,13.0,69,0.00,,,0.02,0,Wunderground v.1.15,2013-08-05 05:45:00,
2013-08-04 23:55:00,63.1,53.2,29.92,SSE,165,0.0,13.0,70,0.00,,,0.02,0,Wunderground v.1.15,2013-08-05 05:55:00,